Time;durP1;ratioP1;P1;durP2;ratioP2;P2;SDS_P1;SDS_P2;PMS_P1;PMS_P2;Temp;Humidity;BMP_temperature;BMP_pressure;BME280_temperature;BME280_humidity;BME280_pressure;Samples;Min_cycle;Max_cycle;Signal;HPM_P1;HPM_P2
2021/12/03 00:01:14;;;;;;;6.30;4.93;;;;;;;;;;5075012;28;20432;-75
2021/12/03 00:03:42;;;;;;;5.77;5.17;;;;;;;;;;5068029;28;20974;-75
2021/12/03 00:06:10;;;;;;;7.67;4.87;;;;;;;;;;5060146;28;20815;-76
2021/12/03 00:08:38;;;;;;;5.30;4.60;;;;;;;;;;5054840;28;20548;-75
2021/12/03 00:11:05;;;;;;;5.43;5.00;;;;;;;;;;5055134;28;20446;-78
2021/12/03 00:13:34;;;;;;;5.90;5.13;;;;;;;;;;5055260;28;20481;-75
2021/12/03 00:16:01;;;;;;;5.50;5.10;;;;;;;;;;5070677;28;20449;-75
2021/12/03 00:18:29;;;;;;;5.93;5.10;;;;;;;;;;5054823;28;20448;-77
2021/12/03 00:20:56;;;;;;;6.43;5.83;;;;;;;;;;5054946;28;20449;-75
2021/12/03 00:23:25;;;;;;;5.57;5.13;;;;;;;;;;5054460;28;20491;-75
2021/12/03 00:25:53;;;;;;;6.20;5.70;;;;;;;;;;5054532;28;20452;-75
2021/12/03 00:28:20;;;;;;;6.10;5.50;;;;;;;;;;5054812;28;20778;-75
2021/12/03 00:30:47;;;;;;;7.00;5.50;;;;;;;;;;5054713;28;20461;-75
2021/12/03 00:33:14;;;;;;;7.70;5.50;;;;;;;;;;5054292;28;20461;-76
2021/12/03 00:35:41;;;;;;;6.10;5.60;;;;;;;;;;5054412;28;20464;-75
2021/12/03 00:38:08;;;;;;;5.73;5.23;;;;;;;;;;5054253;28;20941;-75
2021/12/03 00:40:39;;;;;;;6.53;5.83;;;;;;;;;;5053941;28;20450;-75
2021/12/03 00:43:06;;;;;;;7.40;6.40;;;;;;;;;;5053914;28;20600;-77
2021/12/03 00:45:33;;;;;;;8.63;5.90;;;;;;;;;;5054356;28;20472;-74
2021/12/03 00:48:01;;;;;;;6.60;5.90;;;;;;;;;;5054274;28;20450;-75
2021/12/03 00:50:29;;;;;;;7.20;6.60;;;;;;;;;;5057253;28;20507;-74
2021/12/03 00:52:57;;;;;;;6.63;6.00;;;;;;;;;;5072119;28;20445;-76
2021/12/03 00:55:25;;;;;;;7.40;5.97;;;;;;;;;;5055021;28;20461;-75
2021/12/03 00:57:54;;;;;;;6.00;5.50;;;;;;;;;;5054311;28;20461;-75
2021/12/03 01:00:23;;;;;;;8.07;5.60;;;;;;;;;;5054327;28;20496;-75
2021/12/03 01:02:50;;;;;;;7.90;6.03;;;;;;;;;;5053375;28;20473;-76
2021/12/03 01:05:17;;;;;;;8.13;6.77;;;;;;;;;;5053915;28;20465;-75
2021/12/03 01:07:44;;;;;;;6.53;5.80;;;;;;;;;;5054470;28;20515;-76
2021/12/03 01:10:11;;;;;;;8.43;6.53;;;;;;;;;;5053890;28;20433;-74
2021/12/03 01:12:39;;;;;;;12.07;6.50;;;;;;;;;;5054148;28;20491;-77
2021/12/03 01:15:10;;;;;;;6.67;6.00;;;;;;;;;;5053930;28;20472;-76
2021/12/03 01:17:37;;;;;;;6.40;5.80;;;;;;;;;;5053923;28;20509;-76
2021/12/03 01:20:06;;;;;;;7.43;6.23;;;;;;;;;;5053361;28;20449;-75
2021/12/03 01:22:33;;;;;;;7.13;6.43;;;;;;;;;;5053799;28;20481;-75
2021/12/03 01:25:00;;;;;;;7.00;6.40;;;;;;;;;;5053774;28;20827;-74
2021/12/03 01:27:27;;;;;;;9.63;6.07;;;;;;;;;;5053719;28;20457;-76
2021/12/03 01:29:55;;;;;;;8.93;6.83;;;;;;;;;;5054818;28;20442;-75
2021/12/03 01:32:24;;;;;;;7.10;6.50;;;;;;;;;;5059948;28;20485;-76
2021/12/03 01:34:51;;;;;;;7.60;6.40;;;;;;;;;;5069534;28;20521;-76
2021/12/03 01:37:18;;;;;;;7.23;6.50;;;;;;;;;;5075861;28;20434;-77
2021/12/03 01:39:45;;;;;;;7.90;7.00;;;;;;;;;;5077182;28;20472;-76
2021/12/03 01:42:12;;;;;;;8.23;7.10;;;;;;;;;;5076316;28;20473;-76
2021/12/03 01:44:39;;;;;;;9.33;7.13;;;;;;;;;;5076095;28;20960;-75
2021/12/03 01:47:06;;;;;;;9.43;7.00;;;;;;;;;;5075204;28;20426;-77
2021/12/03 01:49:35;;;;;;;7.47;6.73;;;;;;;;;;5075029;28;20438;-79
2021/12/03 01:52:02;;;;;;;7.70;7.00;;;;;;;;;;5073994;28;20450;-77
2021/12/03 01:54:29;;;;;;;7.13;6.50;;;;;;;;;;5061623;28;20457;-74
2021/12/03 01:56:56;;;;;;;6.90;6.30;;;;;;;;;;5054219;28;20457;-74
2021/12/03 01:59:23;;;;;;;8.60;7.63;;;;;;;;;;5053406;28;20445;-76
2021/12/03 02:01:50;;;;;;;10.57;7.57;;;;;;;;;;5064273;28;20452;-74
2021/12/03 02:04:17;;;;;;;13.10;7.13;;;;;;;;;;5073219;28;20455;-75
2021/12/03 02:06:46;;;;;;;7.80;7.00;;;;;;;;;;5073419;28;20528;-75
2021/12/03 02:09:13;;;;;;;8.43;7.43;;;;;;;;;;5073251;28;20453;-75
2021/12/03 02:11:40;;;;;;;8.77;7.97;;;;;;;;;;5073112;28;20444;-75
2021/12/03 02:14:07;;;;;;;7.97;7.20;;;;;;;;;;5072244;28;20457;-75
2021/12/03 02:16:34;;;;;;;8.80;6.60;;;;;;;;;;5072783;28;20451;-75
2021/12/03 02:19:01;;;;;;;7.77;7.07;;;;;;;;;;5073432;28;20486;-74
2021/12/03 02:21:30;;;;;;;9.13;7.13;;;;;;;;;;5073086;28;20452;-75
2021/12/03 02:23:57;;;;;;;7.87;6.90;;;;;;;;;;5066116;28;20624;-75
2021/12/03 02:26:24;;;;;;;8.77;7.83;;;;;;;;;;5072269;28;20845;-75
2021/12/03 02:28:53;;;;;;;8.30;7.20;;;;;;;;;;5072743;28;20990;-78
2021/12/03 02:31:21;;;;;;;7.73;6.93;;;;;;;;;;5071930;28;20448;-74
2021/12/03 02:33:48;;;;;;;9.23;8.20;;;;;;;;;;5073039;28;20548;-76
2021/12/03 02:36:16;;;;;;;9.73;6.87;;;;;;;;;;5072955;28;20460;-75
2021/12/03 02:38:44;;;;;;;7.73;6.90;;;;;;;;;;5073232;28;20440;-76
2021/12/03 02:41:12;;;;;;;7.37;6.67;;;;;;;;;;5073375;28;20449;-73
2021/12/03 02:43:39;;;;;;;8.27;7.47;;;;;;;;;;5072772;28;20484;-75
2021/12/03 02:46:06;;;;;;;7.20;6.50;;;;;;;;;;5072029;28;20490;-79
2021/12/03 02:48:35;;;;;;;8.00;7.20;;;;;;;;;;5071966;28;20432;-74
2021/12/03 02:51:02;;;;;;;8.47;7.40;;;;;;;;;;5072426;28;20448;-75
2021/12/03 02:53:29;;;;;;;7.90;7.20;;;;;;;;;;5072074;28;20456;-75
2021/12/03 02:55:58;;;;;;;7.80;7.10;;;;;;;;;;5072754;28;20452;-76
2021/12/03 02:58:25;;;;;;;8.17;7.37;;;;;;;;;;5074528;28;20462;-76
2021/12/03 03:00:52;;;;;;;9.63;6.70;;;;;;;;;;5072046;28;20444;-76
2021/12/03 03:03:20;;;;;;;7.93;7.23;;;;;;;;;;5071398;28;20481;-74
2021/12/03 03:05:53;;;;;;;7.80;7.00;;;;;;;;;;5072308;28;20443;-75
2021/12/03 03:08:20;;;;;;;8.63;6.90;;;;;;;;;;5071831;28;20527;-75
2021/12/03 03:10:47;;;;;;;8.13;7.37;;;;;;;;;;5072116;28;20463;-75
2021/12/03 03:13:15;;;;;;;7.60;6.80;;;;;;;;;;5071603;28;20441;-75
2021/12/03 03:15:42;;;;;;;7.87;6.80;;;;;;;;;;5071865;28;20448;-75
2021/12/03 03:18:13;;;;;;;9.20;7.43;;;;;;;;;;5072160;28;20495;-76
2021/12/03 03:20:41;;;;;;;7.70;7.00;;;;;;;;;;5071882;28;20440;-74
2021/12/03 03:23:09;;;;;;;7.40;6.47;;;;;;;;;;5072938;28;20483;-74
2021/12/03 03:25:36;;;;;;;8.63;7.23;;;;;;;;;;5072900;28;20479;-74
2021/12/03 03:28:04;;;;;;;10.40;7.43;;;;;;;;;;5076697;28;20440;-75
2021/12/03 03:30:32;;;;;;;7.87;7.07;;;;;;;;;;5076251;28;20443;-74
2021/12/03 03:32:59;;;;;;;8.10;7.10;;;;;;;;;;5077236;28;20445;-75
2021/12/03 03:35:26;;;;;;;7.77;6.87;;;;;;;;;;5078811;28;20464;-75
2021/12/03 03:37:53;;;;;;;9.60;7.30;;;;;;;;;;5076747;28;20444;-73
2021/12/03 03:40:21;;;;;;;9.03;8.00;;;;;;;;;;5079257;28;20494;-75
2021/12/03 03:42:48;;;;;;;8.30;7.53;;;;;;;;;;5084211;28;20476;-76
2021/12/03 03:45:16;;;;;;;9.90;7.90;;;;;;;;;;5077830;28;20460;-75
2021/12/03 03:47:45;;;;;;;7.70;7.00;;;;;;;;;;5077780;28;20444;-75
2021/12/03 03:50:13;;;;;;;8.87;8.00;;;;;;;;;;5077813;28;20498;-75
2021/12/03 03:52:40;;;;;;;8.83;7.30;;;;;;;;;;5076057;28;20451;-75
2021/12/03 03:55:08;;;;;;;7.90;7.20;;;;;;;;;;5080685;28;21018;-75
2021/12/03 03:57:35;;;;;;;8.03;6.97;;;;;;;;;;5087327;28;20459;-75
2021/12/03 04:00:02;;;;;;;8.43;6.53;;;;;;;;;;5092545;28;20445;-74
2021/12/03 04:02:30;;;;;;;8.67;7.77;;;;;;;;;;5090024;28;20433;-78
2021/12/03 04:04:58;;;;;;;8.03;7.23;;;;;;;;;;5094799;28;20575;-74
2021/12/03 04:07:25;;;;;;;7.40;6.77;;;;;;;;;;5098755;28;20425;-76
2021/12/03 04:09:52;;;;;;;7.63;6.83;;;;;;;;;;5095708;28;20460;-74
2021/12/03 04:12:19;;;;;;;7.00;6.40;;;;;;;;;;5086907;28;20436;-75
2021/12/03 04:14:46;;;;;;;10.00;7.73;;;;;;;;;;5080458;28;20456;-75
2021/12/03 04:17:13;;;;;;;10.00;7.83;;;;;;;;;;5082182;28;20523;-75
2021/12/03 04:19:43;;;;;;;9.37;8.00;;;;;;;;;;5078899;28;20451;-75
2021/12/03 04:22:14;;;;;;;9.40;7.40;;;;;;;;;;5084698;28;20448;-77
2021/12/03 04:24:42;;;;;;;7.07;6.37;;;;;;;;;;5087303;28;20483;-76
2021/12/03 04:27:09;;;;;;;7.80;7.10;;;;;;;;;;5077030;28;20494;-74
2021/12/03 04:29:36;;;;;;;9.07;8.17;;;;;;;;;;5088004;28;20440;-74
2021/12/03 04:32:04;;;;;;;8.50;7.77;;;;;;;;;;5088579;28;20444;-75
2021/12/03 04:34:31;;;;;;;11.40;7.50;;;;;;;;;;5082679;28;20452;-74
2021/12/03 04:36:58;;;;;;;8.27;7.43;;;;;;;;;;5078973;28;20436;-74
2021/12/03 04:39:26;;;;;;;8.97;8.17;;;;;;;;;;5080348;28;20786;-75
2021/12/03 04:41:53;;;;;;;7.47;6.73;;;;;;;;;;5081923;28;20459;-75
2021/12/03 04:44:20;;;;;;;9.07;8.17;;;;;;;;;;5083960;28;20549;-75
2021/12/03 04:46:47;;;;;;;11.13;7.83;;;;;;;;;;5085932;28;20444;-74
2021/12/03 04:49:14;;;;;;;8.23;7.43;;;;;;;;;;5091375;28;20455;-75
2021/12/03 04:51:41;;;;;;;9.07;7.93;;;;;;;;;;5095901;28;20437;-74
2021/12/03 04:54:09;;;;;;;10.53;9.43;;;;;;;;;;5093084;28;20467;-76
2021/12/03 04:56:37;;;;;;;9.23;8.27;;;;;;;;;;5089046;28;20449;-76
2021/12/03 04:59:04;;;;;;;8.23;7.43;;;;;;;;;;5082652;28;20445;-75
2021/12/03 05:01:31;;;;;;;10.73;8.13;;;;;;;;;;5082634;28;20446;-77
2021/12/03 05:03:58;;;;;;;8.90;8.00;;;;;;;;;;5075764;28;20484;-76
2021/12/03 05:06:41;;;;;;;7.97;7.03;;;;;;;;;;5076786;28;20444;-76
2021/12/03 05:09:08;;;;;;;8.73;7.80;;;;;;;;;;5078273;28;20438;-76
2021/12/03 05:11:35;;;;;;;9.07;8.17;;;;;;;;;;5078768;28;20437;-77
2021/12/03 05:14:04;;;;;;;9.47;8.57;;;;;;;;;;5077992;28;20472;-77
2021/12/03 05:16:31;;;;;;;8.87;8.00;;;;;;;;;;5074745;28;20916;-77
2021/12/03 05:18:58;;;;;;;9.40;8.03;;;;;;;;;;5076381;28;20453;-76
2021/12/03 05:21:25;;;;;;;8.20;7.40;;;;;;;;;;5071637;28;20445;-76
2021/12/03 05:23:52;;;;;;;8.30;7.60;;;;;;;;;;5060727;28;20891;-78
2021/12/03 05:26:19;;;;;;;11.20;8.60;;;;;;;;;;5058003;28;20445;-76
2021/12/03 05:28:46;;;;;;;10.10;9.03;;;;;;;;;;5056980;28;20495;-76
2021/12/03 05:31:15;;;;;;;9.53;8.03;;;;;;;;;;5057556;28;20533;-77
2021/12/03 05:33:42;;;;;;;8.50;7.47;;;;;;;;;;5062818;28;20453;-77
2021/12/03 05:36:09;;;;;;;9.40;8.43;;;;;;;;;;5056139;28;20798;-78
2021/12/03 05:38:38;;;;;;;9.53;8.63;;;;;;;;;;5059290;28;20460;-77
2021/12/03 05:41:05;;;;;;;9.23;8.33;;;;;;;;;;5077189;28;20449;-77
2021/12/03 05:43:32;;;;;;;9.43;8.47;;;;;;;;;;5083431;28;20469;-78
2021/12/03 05:45:59;;;;;;;9.60;8.43;;;;;;;;;;5091504;28;20441;-75
2021/12/03 05:48:27;;;;;;;10.00;9.00;;;;;;;;;;5093253;28;20448;-76
2021/12/03 05:50:54;;;;;;;8.90;8.00;;;;;;;;;;5084977;28;20432;-79
2021/12/03 05:53:21;;;;;;;10.27;8.63;;;;;;;;;;5075342;28;20448;-76
2021/12/03 05:55:50;;;;;;;7.73;7.03;;;;;;;;;;5075590;28;20452;-77
2021/12/03 05:58:18;;;;;;;9.17;8.27;;;;;;;;;;5076393;28;20448;-76
2021/12/03 06:00:45;;;;;;;8.83;7.93;;;;;;;;;;5072108;28;20885;-78
2021/12/03 06:03:12;;;;;;;8.60;7.70;;;;;;;;;;5072753;28;20436;-77
2021/12/03 06:05:41;;;;;;;8.43;7.37;;;;;;;;;;5093984;28;20476;-77
2021/12/03 06:08:08;;;;;;;11.23;8.40;;;;;;;;;;5096639;28;20429;-77
2021/12/03 06:10:36;;;;;;;8.03;6.93;;;;;;;;;;5097409;28;20429;-78
2021/12/03 06:13:03;;;;;;;8.70;7.83;;;;;;;;;;5096256;28;20437;-77
2021/12/03 06:15:30;;;;;;;8.50;7.67;;;;;;;;;;5096852;28;20464;-77
2021/12/03 06:17:58;;;;;;;8.20;7.23;;;;;;;;;;5097801;28;20450;-76
2021/12/03 06:20:25;;;;;;;8.47;7.60;;;;;;;;;;5097739;28;20429;-76
2021/12/03 06:22:54;;;;;;;9.40;8.50;;;;;;;;;;5097767;28;20425;-76
2021/12/03 06:25:21;;;;;;;9.27;8.37;;;;;;;;;;5097872;28;20484;-76
2021/12/03 06:27:48;;;;;;;8.60;7.80;;;;;;;;;;5097757;28;20479;-76
2021/12/03 06:30:17;;;;;;;11.77;8.10;;;;;;;;;;5097938;28;20431;-76
2021/12/03 06:32:44;;;;;;;10.30;9.40;;;;;;;;;;5097527;28;20455;-76
2021/12/03 06:35:12;;;;;;;8.73;7.87;;;;;;;;;;5096672;28;20457;-76
2021/12/03 06:37:40;;;;;;;8.20;7.50;;;;;;;;;;5096465;28;20508;-77
2021/12/03 06:40:11;;;;;;;8.30;7.17;;;;;;;;;;5096224;28;20445;-77
2021/12/03 06:42:38;;;;;;;10.40;8.00;;;;;;;;;;5095319;28;20433;-76
2021/12/03 06:45:06;;;;;;;9.27;8.33;;;;;;;;;;5093854;28;20481;-78
2021/12/03 06:47:33;;;;;;;8.53;7.77;;;;;;;;;;5092477;28;20439;-76
2021/12/03 06:50:02;;;;;;;10.00;8.97;;;;;;;;;;5082694;28;20451;-77
2021/12/03 06:52:29;;;;;;;8.23;7.50;;;;;;;;;;5079311;28;20436;-78
2021/12/03 06:54:59;;;;;;;8.63;7.60;;;;;;;;;;5079538;28;20461;-77
2021/12/03 06:57:27;;;;;;;8.60;7.80;;;;;;;;;;5079729;28;20524;-78
2021/12/03 06:59:54;;;;;;;8.17;7.37;;;;;;;;;;5079654;28;20938;-77
2021/12/03 07:02:21;;;;;;;9.23;8.27;;;;;;;;;;5078883;28;20452;-79
2021/12/03 07:04:48;;;;;;;9.90;8.90;;;;;;;;;;5077353;28;20567;-79
2021/12/03 07:07:15;;;;;;;8.83;7.93;;;;;;;;;;5073881;28;21144;-77
2021/12/03 07:09:42;;;;;;;9.67;8.70;;;;;;;;;;5075793;28;20459;-78
2021/12/03 07:12:10;;;;;;;9.50;8.10;;;;;;;;;;5075677;28;20486;-77
2021/12/03 07:14:39;;;;;;;9.17;8.27;;;;;;;;;;5084506;28;20487;-77
2021/12/03 07:17:06;;;;;;;9.50;8.50;;;;;;;;;;5085830;28;20441;-77
2021/12/03 07:19:33;;;;;;;9.40;8.17;;;;;;;;;;5085478;28;20437;-77
2021/12/03 07:22:00;;;;;;;8.63;7.73;;;;;;;;;;5085446;28;20440;-77
2021/12/03 07:24:27;;;;;;;9.70;7.73;;;;;;;;;;5086198;28;20483;-78
2021/12/03 07:26:55;;;;;;;9.00;7.67;;;;;;;;;;5087932;28;20459;-76
2021/12/03 07:29:22;;;;;;;9.93;8.67;;;;;;;;;;5084005;28;20812;-77
2021/12/03 07:31:50;;;;;;;7.67;7.00;;;;;;;;;;5089714;28;20425;-77
2021/12/03 07:34:17;;;;;;;8.60;7.57;;;;;;;;;;5090483;28;20452;-76
2021/12/03 07:36:44;;;;;;;8.03;7.33;;;;;;;;;;5080519;28;20441;-77
2021/12/03 07:39:11;;;;;;;9.87;8.10;;;;;;;;;;5088210;28;20441;-77
2021/12/03 07:41:40;;;;;;;8.73;7.93;;;;;;;;;;5093273;28;20445;-78
2021/12/03 07:44:08;;;;;;;8.30;7.33;;;;;;;;;;5090234;28;20522;-77
2021/12/03 07:46:35;;;;;;;7.40;6.70;;;;;;;;;;5075769;28;20440;-78
2021/12/03 07:49:04;;;;;;;8.00;7.27;;;;;;;;;;5073899;28;20826;-77
2021/12/03 07:51:31;;;;;;;7.57;6.77;;;;;;;;;;5071332;28;20968;-77
2021/12/03 07:53:58;;;;;;;6.60;6.00;;;;;;;;;;5071402;28;20472;-79
2021/12/03 07:56:25;;;;;;;7.67;6.90;;;;;;;;;;5071714;28;20521;-79
2021/12/03 07:58:52;;;;;;;8.10;7.37;;;;;;;;;;5072180;28;20452;-76
2021/12/03 08:01:19;;;;;;;8.03;7.20;;;;;;;;;;5072618;28;20452;-78
2021/12/03 08:03:47;;;;;;;7.03;6.50;;;;;;;;;;5072551;28;20881;-78
2021/12/03 08:06:15;;;;;;;7.87;7.17;;;;;;;;;;5073117;28;20448;-78
2021/12/03 08:08:42;;;;;;;6.97;6.27;;;;;;;;;;5072726;28;20490;-77
2021/12/03 08:11:09;;;;;;;6.67;6.03;;;;;;;;;;5072035;28;20913;-77
2021/12/03 08:13:36;;;;;;;7.30;6.60;;;;;;;;;;5075101;28;20469;-77
2021/12/03 08:16:04;;;;;;;8.00;7.20;;;;;;;;;;5076647;28;20531;-78
2021/12/03 08:18:32;;;;;;;6.57;6.00;;;;;;;;;;5076160;28;20490;-77
2021/12/03 08:21:00;;;;;;;7.70;6.90;;;;;;;;;;5076273;28;20468;-76
2021/12/03 08:23:28;;;;;;;7.73;6.80;;;;;;;;;;5075295;28;20452;-78
2021/12/03 08:25:55;;;;;;;7.10;6.50;;;;;;;;;;5075676;28;20475;-77
2021/12/03 08:28:22;;;;;;;6.63;5.60;;;;;;;;;;5075689;28;20483;-77
2021/12/03 08:30:49;;;;;;;7.00;6.30;;;;;;;;;;5075730;28;20517;-77
2021/12/03 08:33:16;;;;;;;6.63;5.97;;;;;;;;;;5075216;28;20451;-79
2021/12/03 08:35:44;;;;;;;8.57;6.60;;;;;;;;;;5075168;28;20449;-77
2021/12/03 08:38:11;;;;;;;6.50;5.97;;;;;;;;;;5075873;28;20452;-77
2021/12/03 08:40:39;;;;;;;6.83;5.73;;;;;;;;;;5076522;28;20447;-78
2021/12/03 08:43:06;;;;;;;7.13;6.43;;;;;;;;;;5075622;28;20932;-77
2021/12/03 08:45:35;;;;;;;9.20;6.70;;;;;;;;;;5075936;28;20480;-78
2021/12/03 08:48:03;;;;;;;6.43;5.80;;;;;;;;;;5075185;28;20449;-77
2021/12/03 08:50:33;;;;;;;6.33;5.43;;;;;;;;;;5075633;28;20445;-77
2021/12/03 08:55:58;;;;;;;6.77;6.17;;;;;;;;;;5032629;28;20428;-78
2021/12/03 08:58:26;;;;;;;6.20;5.20;;;;;;;;;;5065387;28;20548;-78
2021/12/03 09:00:53;;;;;;;7.20;6.57;;;;;;;;;;5074991;28;20475;-77
2021/12/03 09:03:20;;;;;;;7.13;6.00;;;;;;;;;;5054659;28;20442;-78
2021/12/03 09:05:47;;;;;;;6.97;6.37;;;;;;;;;;5054822;28;20488;-77
2021/12/03 09:08:15;;;;;;;6.00;5.53;;;;;;;;;;5054841;28;20456;-77
2021/12/03 09:10:42;;;;;;;6.20;5.60;;;;;;;;;;5055494;28;20443;-78
2021/12/03 09:13:11;;;;;;;6.03;5.43;;;;;;;;;;5054783;28;20471;-76
2021/12/03 09:15:41;;;;;;;7.30;6.20;;;;;;;;;;5054776;28;20475;-78
2021/12/03 09:18:17;;;;;;;8.47;5.47;;;;;;;;;;5054649;28;20481;-79
2021/12/03 09:20:52;;;;;;;13.07;6.27;;;;;;;;;;5054100;28;20445;-78
2021/12/03 09:23:25;;;;;;;5.37;4.87;;;;;;;;;;5053340;28;20478;-78
2021/12/03 09:25:55;;;;;;;4.60;3.07;;;;;;;;;;5055283;28;20565;-77
2021/12/03 09:28:27;;;;;;;4.90;4.27;;;;;;;;;;5056705;28;20457;-79
2021/12/03 09:30:54;;;;;;;4.17;3.87;;;;;;;;;;5055914;28;20436;-78
2021/12/03 09:33:25;;;;;;;4.40;3.47;;;;;;;;;;5053961;28;20445;-77
2021/12/03 09:35:55;;;;;;;3.97;3.20;;;;;;;;;;5053980;28;20450;-77
2021/12/03 09:38:24;;;;;;;3.77;3.40;;;;;;;;;;5053557;28;20533;-79
2021/12/03 09:40:51;;;;;;;4.00;3.70;;;;;;;;;;5053866;28;20883;-77
2021/12/03 09:43:18;;;;;;;3.73;3.43;;;;;;;;;;5054012;28;20442;-77
2021/12/03 09:45:56;;;;;;;5.20;3.20;;;;;;;;;;5053989;28;20883;-77
2021/12/03 09:48:34;;;;;;;3.60;3.40;;;;;;;;;;5054200;28;20543;-79
2021/12/03 09:51:01;;;;;;;3.87;3.57;;;;;;;;;;5060108;28;21236;-78
2021/12/03 09:53:43;;;;;;;4.07;3.77;;;;;;;;;;5072570;28;21843;-78
2021/12/03 09:56:12;;;;;;;3.57;3.33;;;;;;;;;;5072619;28;20511;-77
2021/12/03 10:01:29;;;;;;;3.70;3.50;;;;;;;;;;5060631;28;20429;-79
2021/12/03 10:04:06;;;;;;;3.93;3.60;;;;;;;;;;5053218;28;20461;-78
2021/12/03 10:15:06;;;;;;;4.27;3.87;;;;;;;;;;5063368;28;20436;-79
2021/12/03 10:17:45;;;;;;;4.00;3.70;;;;;;;;;;5071427;28;20441;-79
2021/12/03 10:20:28;;;;;;;4.67;3.93;;;;;;;;;;5064961;28;20442;-77
2021/12/03 10:29:04;;;;;;;3.83;3.43;;;;;;;;;;5054266;28;20919;-78
2021/12/03 10:34:32;;;;;;;4.77;4.13;;;;;;;;;;5057512;28;21130;-78
2021/12/03 10:37:20;;;;;;;4.07;3.67;;;;;;;;;;5058254;28;20456;-78
2021/12/03 10:39:56;;;;;;;5.30;4.70;;;;;;;;;;5061876;28;20552;-79
2021/12/03 10:42:37;;;;;;;5.60;3.97;;;;;;;;;;5072606;28;20539;-78
2021/12/03 10:45:21;;;;;;;4.43;4.13;;;;;;;;;;5065884;28;20486;-77
2021/12/03 10:50:50;;;;;;;4.60;4.20;;;;;;;;;;5054482;28;20490;-78
2021/12/03 10:53:30;;;;;;;4.20;3.90;;;;;;;;;;5053977;28;20457;-77
2021/12/03 10:56:19;;;;;;;3.73;3.43;;;;;;;;;;5068328;28;20518;-79
2021/12/03 11:04:40;;;;;;;4.30;4.00;;;;;;;;;;5053315;28;20464;-79
2021/12/03 11:07:41;;;;;;;4.40;4.03;;;;;;;;;;5061386;28;20887;-80
2021/12/03 11:30:17;;;;;;;4.27;3.97;;;;;;;;;;5053934;28;20432;-79
2021/12/03 11:47:45;;;;;;;4.63;4.30;;;;;;;;;;5089373;28;21044;-79
2021/12/03 12:11:07;;;;;;;4.53;4.13;;;;;;;;;;5069533;28;20432;-78
2021/12/03 12:37:01;;;;;;;5.43;4.10;;;;;;;;;;5066467;28;20510;-75
2021/12/03 13:10:59;;;;;;;3.40;3.20;;;;;;;;;;5045652;28;20192;-78
2021/12/03 13:19:49;;;;;;;3.10;2.90;;;;;;;;;;5036182;28;20190;-77
2021/12/03 14:10:12;;;;;;;3.77;3.37;;;;;;;;;;5052600;28;20425;-79
2021/12/03 14:36:09;;;;;;;4.20;3.40;;;;;;;;;;5053686;28;20435;-78
2021/12/03 14:41:23;;;;;;;4.80;3.00;;;;;;;;;;5052700;28;20416;-77
2021/12/03 14:44:06;;;;;;;3.90;3.10;;;;;;;;;;5053636;28;20461;-78
2021/12/03 14:46:58;;;;;;;3.50;3.10;;;;;;;;;;5052286;28;20494;-78
2021/12/03 14:49:38;;;;;;;3.43;3.10;;;;;;;;;;5052498;28;20441;-77
2021/12/03 14:52:14;;;;;;;3.13;2.88;;;;;;;;;;5052129;28;20544;-78
2021/12/03 14:54:49;;;;;;;3.30;2.80;;;;;;;;;;5051933;28;20230;-77
2021/12/03 14:57:23;;;;;;;3.60;3.20;;;;;;;;;;5052604;28;20288;-77
2021/12/03 15:00:09;;;;;;;3.43;3.10;;;;;;;;;;5052406;28;20492;-77
2021/12/03 15:02:53;;;;;;;6.33;3.87;;;;;;;;;;5051906;28;20449;-78
2021/12/03 15:05:35;;;;;;;3.77;3.47;;;;;;;;;;5052119;28;20503;-78
2021/12/03 15:08:05;;;;;;;3.50;3.30;;;;;;;;;;5052591;28;20435;-79
2021/12/03 15:10:46;;;;;;;3.53;3.20;;;;;;;;;;5052907;28;20456;-78
2021/12/03 15:13:30;;;;;;;4.33;4.00;;;;;;;;;;5052047;28;20450;-78
2021/12/03 15:19:11;;;;;;;4.83;4.07;;;;;;;;;;5051160;28;20429;-78
2021/12/03 15:24:40;;;;;;;3.37;3.13;;;;;;;;;;5051769;28;20480;-78
2021/12/03 15:27:26;;;;;;;3.60;3.37;;;;;;;;;;5051880;28;20483;-78
2021/12/03 15:32:42;;;;;;;3.97;3.30;;;;;;;;;;5051865;28;20514;-78
2021/12/03 15:35:12;;;;;;;3.80;3.50;;;;;;;;;;5052328;28;20465;-77
2021/12/03 15:38:04;;;;;;;4.33;3.93;;;;;;;;;;5052304;28;20483;-77
2021/12/03 15:40:43;;;;;;;4.43;3.87;;;;;;;;;;5052359;28;20445;-80
2021/12/03 15:57:26;;;;;;;4.28;3.40;;;;;;;;;;5052188;28;20477;-78
2021/12/03 16:08:27;;;;;;;4.00;3.70;;;;;;;;;;5010235;28;20464;-79
2021/12/03 16:11:03;;;;;;;4.63;4.30;;;;;;;;;;5010879;28;20446;-77
2021/12/03 16:13:42;;;;;;;5.80;5.10;;;;;;;;;;5033240;28;20453;-77
2021/12/03 16:19:08;;;;;;;5.30;4.68;;;;;;;;;;5055172;28;20435;-77
2021/12/03 16:21:50;;;;;;;4.30;3.90;;;;;;;;;;5052010;28;20201;-79
2021/12/03 16:43:55;;;;;;;4.83;4.40;;;;;;;;;;5055860;28;20858;-77
2021/12/03 16:46:45;;;;;;;5.32;4.40;;;;;;;;;;5055653;28;20484;-79
2021/12/03 16:49:51;;;;;;;4.40;3.97;;;;;;;;;;5055461;28;20211;-78
2021/12/03 16:52:22;;;;;;;4.67;4.27;;;;;;;;;;5055063;28;20454;-77
2021/12/03 16:54:53;;;;;;;4.73;4.33;;;;;;;;;;5056691;28;20987;-77
2021/12/03 16:57:20;;;;;;;4.90;4.40;;;;;;;;;;5059682;28;20449;-77
2021/12/03 16:59:48;;;;;;;4.60;4.27;;;;;;;;;;5060400;28;20621;-78
2021/12/03 17:02:20;;;;;;;4.77;4.13;;;;;;;;;;5060860;28;20434;-77
2021/12/03 17:05:04;;;;;;;6.00;4.83;;;;;;;;;;5054181;28;20552;-79
2021/12/03 17:16:09;;;;;;;4.00;3.63;;;;;;;;;;5047159;28;20430;-77
2021/12/03 17:24:48;;;;;;;4.90;4.40;;;;;;;;;;5052881;28;20960;-77
2021/12/03 17:30:25;;;;;;;7.78;4.32;;;;;;;;;;5046016;28;20206;-77
2021/12/03 17:47:15;;;;;;;6.63;5.40;;;;;;;;;;5058314;28;20494;-76
2021/12/03 17:49:46;;;;;;;4.70;4.20;;;;;;;;;;5050359;28;20451;-77
2021/12/03 17:55:13;;;;;;;5.73;4.63;;;;;;;;;;5038749;28;20465;-78
2021/12/03 17:57:45;;;;;;;4.67;4.27;;;;;;;;;;5052612;28;20442;-77
2021/12/03 18:00:16;;;;;;;4.57;4.17;;;;;;;;;;5044160;28;20457;-76
2021/12/03 18:02:45;;;;;;;4.05;3.75;;;;;;;;;;5054378;28;20473;-78
2021/12/03 18:05:26;;;;;;;5.10;4.10;;;;;;;;;;5048371;28;20360;-78
2021/12/03 18:08:04;;;;;;;3.73;3.43;;;;;;;;;;5047361;28;20430;-76
2021/12/03 18:44:08;;;;;;;6.70;4.13;;;;;;;;;;5052651;28;20582;-76
2021/12/03 18:46:55;;;;;;;4.20;3.90;;;;;;;;;;5052018;28;20534;-79
2021/12/03 18:49:46;;;;;;;5.00;4.23;;;;;;;;;;5052874;28;20530;-78
2021/12/03 18:52:27;;;;;;;4.50;4.20;;;;;;;;;;5053053;28;20445;-78
2021/12/03 18:55:00;;;;;;;5.10;4.70;;;;;;;;;;5052983;28;20465;-77
2021/12/03 18:57:29;;;;;;;4.87;4.47;;;;;;;;;;5054338;28;20499;-78
2021/12/03 19:00:01;;;;;;;8.73;4.90;;;;;;;;;;5054235;28;20444;-78
2021/12/03 19:02:29;;;;;;;4.82;4.32;;;;;;;;;;5055441;28;20450;-76
2021/12/03 19:05:01;;;;;;;5.57;5.07;;;;;;;;;;5055094;28;20792;-77
2021/12/03 19:07:31;;;;;;;8.07;5.07;;;;;;;;;;5053626;28;20854;-78
2021/12/03 19:10:03;;;;;;;5.93;4.70;;;;;;;;;;5053593;28;20480;-79
2021/12/03 19:12:32;;;;;;;8.18;4.75;;;;;;;;;;5054915;28;20451;-79
2021/12/03 19:15:01;;;;;;;8.60;4.97;;;;;;;;;;5054663;28;20218;-78
2021/12/03 19:17:35;;;;;;;5.57;5.07;;;;;;;;;;5054093;28;20288;-78
2021/12/03 19:20:03;;;;;;;5.10;4.40;;;;;;;;;;5054021;28;20484;-77
2021/12/03 19:22:30;;;;;;;8.10;4.83;;;;;;;;;;5053254;28;20448;-78
2021/12/03 19:24:58;;;;;;;6.87;5.50;;;;;;;;;;5052738;28;20511;-78
2021/12/03 19:27:26;;;;;;;6.30;5.47;;;;;;;;;;5053089;28;20479;-78
2021/12/03 19:29:54;;;;;;;7.63;5.57;;;;;;;;;;5053312;28;20990;-76
2021/12/03 19:32:23;;;;;;;7.53;6.07;;;;;;;;;;5052978;28;20818;-79
2021/12/03 19:34:50;;;;;;;5.87;5.37;;;;;;;;;;5053657;28;20495;-79
2021/12/03 19:37:17;;;;;;;6.10;5.00;;;;;;;;;;5053160;28;20442;-77
2021/12/03 19:39:44;;;;;;;7.77;7.03;;;;;;;;;;5053383;28;20451;-78
2021/12/03 19:42:14;;;;;;;6.28;5.65;;;;;;;;;;5054809;28;20445;-78
2021/12/03 19:44:45;;;;;;;6.00;4.90;;;;;;;;;;5052871;28;20225;-79
2021/12/03 19:47:13;;;;;;;5.50;4.97;;;;;;;;;;5053036;28;20558;-77
2021/12/03 19:49:49;;;;;;;5.20;4.80;;;;;;;;;;5052570;28;20524;-77
2021/12/03 19:52:24;;;;;;;5.70;5.20;;;;;;;;;;5052752;28;20446;-79
2021/12/03 19:54:52;;;;;;;6.43;5.83;;;;;;;;;;5052470;28;20572;-77
2021/12/03 19:57:19;;;;;;;7.00;5.17;;;;;;;;;;5053568;28;20449;-77
2021/12/03 19:59:46;;;;;;;5.80;5.20;;;;;;;;;;5053511;28;20443;-79
2021/12/03 20:02:13;;;;;;;5.40;5.00;;;;;;;;;;5052805;28;20487;-78
2021/12/03 20:04:42;;;;;;;5.83;5.37;;;;;;;;;;5052554;28;20466;-78
2021/12/03 20:07:09;;;;;;;10.03;5.97;;;;;;;;;;5055325;28;20482;-77
2021/12/03 20:09:42;;;;;;;5.47;4.97;;;;;;;;;;5057567;28;20857;-78
2021/12/03 20:12:13;;;;;;;5.93;5.43;;;;;;;;;;5056492;28;20833;-76
2021/12/03 20:14:42;;;;;;;7.07;6.40;;;;;;;;;;5055948;28;20469;-77
2021/12/03 20:17:14;;;;;;;6.17;5.57;;;;;;;;;;5057428;28;20792;-78
2021/12/03 20:19:47;;;;;;;6.10;5.60;;;;;;;;;;5058124;28;20441;-79
2021/12/03 20:22:17;;;;;;;6.10;5.50;;;;;;;;;;5052898;28;20690;-79
2021/12/03 20:24:56;;;;;;;6.87;6.17;;;;;;;;;;5050234;28;20809;-78
2021/12/03 20:27:25;;;;;;;7.10;6.40;;;;;;;;;;5050773;28;20906;-77
2021/12/03 20:29:53;;;;;;;6.73;6.10;;;;;;;;;;5041526;28;20805;-76
2021/12/03 20:32:33;;;;;;;6.20;5.63;;;;;;;;;;5053684;28;20914;-78
2021/12/03 20:37:52;;;;;;;6.83;6.03;;;;;;;;;;5033248;28;20793;-78
2021/12/03 20:40:23;;;;;;;6.67;5.23;;;;;;;;;;5053465;28;20972;-78
2021/12/03 20:43:02;;;;;;;6.43;5.80;;;;;;;;;;5041948;28;20452;-77
2021/12/03 20:45:51;;;;;;;5.83;5.33;;;;;;;;;;5048918;28;20557;-78
2021/12/03 20:48:28;;;;;;;6.97;6.27;;;;;;;;;;5055928;28;20485;-77